createdAt,value
2023-04-03T00:01:27.136Z,102539.97
2023-04-03T00:04:33.139Z,102545.94
2023-04-03T00:07:36.214Z,102536.53
2023-04-03T00:10:39.914Z,102536.53
2023-04-03T00:13:44.903Z,102539.97
2023-04-03T00:16:48.074Z,102542.53
2023-04-03T00:19:51.111Z,102542.53
2023-04-03T00:22:54.274Z,102545.09
2023-04-03T00:25:58.076Z,102541.69
2023-04-03T00:29:02.481Z,102541.69
2023-04-03T00:32:05.845Z,102542.53
2023-04-03T00:35:10.090Z,102548.53
2023-04-03T00:38:13.312Z,102550.25
2023-04-03T00:41:16.625Z,102551.94
2023-04-03T00:44:25.036Z,102546.78
2023-04-03T00:47:29.165Z,102539.09
2023-04-03T00:50:32.761Z,102545.09
2023-04-03T00:53:44.489Z,102549.38
2023-04-03T00:56:47.554Z,102539.13
2023-04-03T00:59:57.682Z,102539.97
2023-04-03T01:03:01.189Z,102546.78
2023-04-03T01:06:06.200Z,102545.13
2023-04-03T01:09:09.564Z,102548.53
2023-04-03T01:12:18.220Z,102541.69
2023-04-03T01:15:27.330Z,102545.09
2023-04-03T01:18:30.641Z,102551.94
2023-04-03T01:22:08.340Z,102551.09
2023-04-03T01:25:11.550Z,102552.78
2023-04-03T01:28:17.886Z,102550.22
2023-04-03T01:31:26.650Z,102557.06
2023-04-03T01:34:33.557Z,102554.50
2023-04-03T01:37:37.490Z,102557.06
2023-04-03T01:40:40.616Z,102550.22
2023-04-03T01:43:46.536Z,102561.34
2023-04-03T01:46:49.858Z,102563.88
2023-04-03T01:49:55.227Z,102567.28
2023-04-03T01:52:58.667Z,102563.88
2023-04-03T01:56:01.819Z,102569.84
2023-04-03T01:59:05.517Z,102566.44
2023-04-03T02:02:09.212Z,102574.97
2023-04-03T02:05:16.928Z,102574.97
2023-04-03T02:08:20.181Z,102578.38
2023-04-03T02:11:24.605Z,102575.81
2023-04-03T02:14:28.469Z,102576.69
2023-04-03T02:17:31.846Z,102578.38
2023-04-03T02:20:36.385Z,102573.28
2023-04-03T02:23:40.718Z,102574.06
2023-04-03T02:26:43.821Z,102577.50
2023-04-03T02:29:46.823Z,102580.03
2023-04-03T02:32:49.823Z,102581.75
2023-04-03T02:35:56.294Z,102588.59
2023-04-03T02:38:59.438Z,102592.00
2023-04-03T02:42:02.594Z,102592.88
2023-04-03T02:45:07.251Z,102600.53
2023-04-03T02:48:10.795Z,102603.09
2023-04-03T02:51:15.762Z,102609.91
2023-04-03T02:54:18.885Z,102612.47
2023-04-03T02:57:26.357Z,102613.31
2023-04-03T03:00:29.465Z,102616.72
2023-04-03T03:03:32.555Z,102611.59
2023-04-03T03:06:37.683Z,102614.13
2023-04-03T03:09:41.012Z,102624.38
2023-04-03T03:12:43.984Z,102619.25
2023-04-03T03:15:47.445Z,102620.06
2023-04-03T03:18:50.643Z,102622.63
2023-04-03T03:21:55.158Z,102615.75
2023-04-03T03:24:59.416Z,102628.53
2023-04-03T03:28:02.396Z,102624.25
2023-04-03T03:31:07.042Z,102631.97
2023-04-03T03:34:11.049Z,102630.25
2023-04-03T03:37:16.602Z,102631.91
2023-04-03T03:40:19.799Z,102636.19
2023-04-03T03:43:22.824Z,102635.28
2023-04-03T03:46:27.522Z,102641.25
2023-04-03T03:49:30.991Z,102631.88
2023-04-03T03:52:35.729Z,102637.84
2023-04-03T03:55:39.065Z,102635.28
2023-04-03T03:58:42.523Z,102631.88
2023-04-03T04:01:45.892Z,102636.97
2023-04-03T04:04:50.269Z,102631.84
2023-04-03T04:07:54.825Z,102631.00
2023-04-03T04:10:59.280Z,102626.72
2023-04-03T04:14:02.364Z,102633.53
2023-04-03T04:17:07.004Z,102631.81
2023-04-03T04:20:11.958Z,102634.38
2023-04-03T04:23:18.326Z,102639.50
2023-04-03T04:26:22.652Z,102638.59
2023-04-03T04:29:26.182Z,102635.16
2023-04-03T04:32:29.728Z,102639.41
2023-04-03T04:35:33.055Z,102641.16
2023-04-03T04:38:38.070Z,102633.47
2023-04-03T04:41:41.353Z,102638.59
2023-04-03T04:44:45.857Z,102646.28
2023-04-03T04:47:52.487Z,102646.25
2023-04-03T04:50:56.208Z,102653.09
2023-04-03T04:54:00.565Z,102655.63
2023-04-03T04:57:03.738Z,102657.31
2023-04-03T05:00:09.559Z,102657.31
2023-04-03T05:03:13.168Z,102665.84
2023-04-03T05:06:16.695Z,102662.44
2023-04-03T05:09:21.852Z,102668.41
2023-04-03T05:12:26.585Z,102670.13
2023-04-03T05:15:34.804Z,102667.59
2023-04-03T05:18:38.156Z,102670.19
2023-04-03T05:21:46.314Z,102663.38
2023-04-03T05:24:53.486Z,102670.25
2023-04-03T05:27:58.068Z,102672.84
2023-04-03T05:31:02.196Z,102665.19
2023-04-03T05:34:11.104Z,102667.75
2023-04-03T05:37:15.656Z,102668.63
2023-04-03T05:40:20.908Z,102671.22
2023-04-03T05:43:27.713Z,102686.63
2023-04-03T05:46:31.958Z,102685.81
2023-04-03T05:49:41.720Z,102686.72
2023-04-03T05:52:49.004Z,102687.59
2023-04-03T05:55:53.856Z,102686.81
2023-04-03T05:58:57.912Z,102686.84
2023-04-03T06:02:02.219Z,102692.94
2023-04-03T06:05:06.771Z,102688.69
2023-04-03T06:08:11.506Z,102693.84
2023-04-03T06:11:15.978Z,102692.97
2023-04-03T06:14:19.119Z,102696.41
2023-04-03T06:17:22.174Z,102695.53
2023-04-03T06:20:25.425Z,102708.38
2023-04-03T06:23:30.279Z,102709.25
2023-04-03T06:26:35.047Z,102699.00
2023-04-03T06:29:38.088Z,102706.69
2023-04-03T06:32:41.520Z,102715.28
2023-04-03T06:35:44.600Z,102699.91
2023-04-03T06:38:47.753Z,102702.44
2023-04-03T06:41:53.071Z,102711.00
2023-04-03T06:45:06.031Z,102699.88
2023-04-03T06:48:09.949Z,102710.19
2023-04-03T06:51:21.536Z,102711.88
2023-04-03T06:54:24.691Z,102713.59
2023-04-03T06:57:29.370Z,102721.28
2023-04-03T07:00:32.934Z,102720.44
2023-04-03T07:03:36.476Z,102730.66
2023-04-03T07:06:39.480Z,102729.81
2023-04-03T07:09:45.198Z,102722.94
2023-04-03T07:12:49.710Z,102733.22
2023-04-03T07:15:52.859Z,102731.50
2023-04-03T07:18:56.976Z,102732.31
2023-04-03T07:22:00.050Z,102734.84
2023-04-03T07:25:03.464Z,102742.56
2023-04-03T07:28:09.203Z,102730.38
2023-04-03T07:31:14.503Z,102739.91
2023-04-03T07:34:17.810Z,102735.56
2023-04-03T07:37:21.632Z,102740.69
2023-04-03T07:40:24.662Z,102757.78
2023-04-03T07:43:29.297Z,102736.41
2023-04-03T07:46:32.742Z,102746.59
2023-04-03T07:49:39.001Z,102751.69
2023-04-03T07:52:42.354Z,102742.38
2023-04-03T07:55:47.888Z,102744.03
2023-04-03T07:58:52.173Z,102750.03
2023-04-03T08:01:55.130Z,102748.28
2023-04-03T08:04:58.281Z,102740.56
2023-04-03T08:08:02.063Z,102737.63
2023-04-03T08:11:06.986Z,102742.75
2023-04-03T08:14:16.351Z,102742.00
2023-04-03T08:17:19.436Z,102747.09
2023-04-03T08:20:22.724Z,102733.22
2023-04-03T08:23:25.694Z,102750.34
2023-04-03T08:26:28.642Z,102747.75
2023-04-03T08:29:33.725Z,102746.31
2023-04-03T08:32:37.862Z,102746.38
2023-04-03T08:35:42.433Z,102744.59
2023-04-03T08:38:46.032Z,102731.69
2023-04-03T08:41:49.618Z,102734.28
2023-04-03T08:45:01.597Z,102737.81
2023-04-03T08:48:09.150Z,102739.47
2023-04-03T08:51:17.486Z,102747.28
2023-04-03T08:54:31.621Z,102748.06
2023-04-03T08:57:38.564Z,102741.97
2023-04-03T09:00:49.160Z,102738.59
2023-04-03T09:03:53.439Z,102737.69
2023-04-03T09:07:01.043Z,102737.50
2023-04-03T09:10:05.235Z,102730.59
2023-04-03T09:13:14.291Z,102728.00
2023-04-03T09:16:34.821Z,102726.59
2023-04-03T09:19:43.945Z,102723.31
2023-04-03T09:22:52.231Z,102720.13
2023-04-03T09:26:06.129Z,102727.06
2023-04-03T09:29:10.926Z,102732.22
2023-04-03T09:32:28.498Z,102730.53
2023-04-03T09:35:44.886Z,102720.34
2023-04-03T09:39:06.682Z,102713.56
2023-04-03T09:42:22.881Z,102722.31
2023-04-03T09:45:29.374Z,102724.28
2023-04-03T09:48:35.502Z,102723.06
2023-04-03T09:51:39.857Z,102709.31
2023-04-03T09:54:42.888Z,102722.41
2023-04-03T09:57:50.625Z,102722.41
2023-04-03T10:01:01.675Z,102720.97
2023-04-03T10:04:11.751Z,102716.56
2023-04-03T10:07:36.769Z,102715.28
2023-04-03T10:10:41.308Z,102705.00
2023-04-03T10:13:57.490Z,102708.44
2023-04-03T10:17:15.313Z,102713.78
2023-04-03T10:20:32.697Z,102705.13
2023-04-03T10:23:43.844Z,102701.81
2023-04-03T10:26:55.250Z,102709.31
2023-04-03T10:30:06.438Z,102699.78
2023-04-03T10:33:27.588Z,102702.19
2023-04-03T10:36:41.225Z,102688.91
2023-04-03T10:39:56.166Z,102686.38
2023-04-03T10:43:08.667Z,102691.34
2023-04-03T10:46:17.585Z,102687.25
2023-04-03T10:49:34.730Z,102694.06
2023-04-03T10:52:47.546Z,102682.94
2023-04-03T10:55:56.415Z,102684.44
2023-04-03T10:59:04.789Z,102672.16
2023-04-03T11:02:16.547Z,102674.03
2023-04-03T11:05:30.823Z,102675.28
2023-04-03T11:08:41.389Z,102673.56
2023-04-03T11:11:46.545Z,102672.53
2023-04-03T11:14:51.875Z,102666.41
2023-04-03T11:18:00.522Z,102652.44
2023-04-03T11:21:10.152Z,102658.31
2023-04-03T11:24:23.807Z,102658.19
2023-04-03T11:27:31.760Z,102660.84
2023-04-03T11:30:41.637Z,102655.00
2023-04-03T11:33:55.496Z,102665.09
2023-04-03T11:37:01.536Z,102662.22
2023-04-03T11:40:19.401Z,102667.31
2023-04-03T11:43:30.273Z,102658.66
2023-04-03T11:46:57.214Z,102651.69
2023-04-03T11:50:03.762Z,102645.53
2023-04-03T11:53:33.433Z,102655.53
2023-04-03T11:56:37.860Z,102657.44
2023-04-03T11:59:41.063Z,102657.59
2023-04-03T12:02:53.634Z,102663.78
2023-04-03T12:06:37.822Z,102665.41
2023-04-03T12:10:31.664Z,102650.56
2023-04-03T12:13:37.791Z,102648.00
2023-04-03T12:16:48.228Z,102652.28
2023-04-03T12:19:51.893Z,102652.66
2023-04-03T12:23:10.161Z,102642.88
2023-04-03T12:26:23.932Z,102639.28
2023-04-03T12:29:36.119Z,102634.06
2023-04-03T12:33:22.513Z,102634.38
2023-04-03T12:36:35.887Z,102625.34
2023-04-03T12:39:55.431Z,102610.19
2023-04-03T12:43:18.346Z,102624.09
2023-04-03T12:46:38.352Z,102630.59
2023-04-03T12:49:46.102Z,102622.50
2023-04-03T12:52:58.216Z,102630.47
2023-04-03T12:56:23.174Z,102630.44
2023-04-03T12:59:28.671Z,102619.03
2023-04-03T13:02:35.517Z,102617.47
2023-04-03T13:05:38.995Z,102619.88
2023-04-03T13:08:52.052Z,102616.69
2023-04-03T13:12:01.374Z,102610.75
2023-04-03T13:15:16.095Z,102618.44
2023-04-03T13:18:41.973Z,102612.44
2023-04-03T13:21:46.378Z,102619.41
2023-04-03T13:24:54.610Z,102604.91
2023-04-03T13:31:17.950Z,102611.31
2023-04-03T13:34:24.455Z,102616.19
2023-04-03T13:37:31.177Z,102610.38
2023-04-03T13:40:46.934Z,102606.88
2023-04-03T13:43:53.634Z,102604.38
2023-04-03T13:47:03.650Z,102599.91
2023-04-03T13:50:19.055Z,102595.41
2023-04-03T13:53:22.773Z,102591.22
2023-04-03T13:56:33.296Z,102603.97
2023-04-03T13:59:37.892Z,102610.03
2023-04-03T14:02:41.804Z,102607.53
2023-04-03T14:05:46.644Z,102601.34
2023-04-03T14:08:50.776Z,102590.91
2023-04-03T14:11:57.757Z,102587.50
2023-04-03T14:15:03.194Z,102595.00
2023-04-03T14:18:07.864Z,102584.25
2023-04-03T14:21:14.152Z,102585.81
2023-04-03T14:24:17.544Z,102589.91
2023-04-03T14:27:23.832Z,102586.06
2023-04-03T14:30:30.668Z,102575.75
2023-04-03T14:33:37.549Z,102571.53
2023-04-03T14:36:45.175Z,102575.41
2023-04-03T14:39:48.843Z,102573.50
2023-04-03T14:42:52.351Z,102576.66
2023-04-03T14:45:55.758Z,102592.66
2023-04-03T14:48:59.600Z,102577.75
2023-04-03T14:52:03.986Z,102574.31
2023-04-03T14:55:08.952Z,102579.91
2023-04-03T14:58:17.097Z,102574.25
2023-04-03T15:01:20.434Z,102575.31
2023-04-03T15:04:23.701Z,102579.16
2023-04-03T15:07:31.098Z,102582.44
2023-04-03T15:10:35.416Z,102581.66
2023-04-03T15:13:38.946Z,102574.88
2023-04-03T15:16:42.096Z,102577.59
2023-04-03T15:19:45.796Z,102583.50
2023-04-03T15:22:51.045Z,102577.53
2023-04-03T15:25:55.668Z,102576.84
2023-04-03T15:28:58.798Z,102574.47
2023-04-03T15:32:02.037Z,102570.44
2023-04-03T15:35:07.058Z,102573.06
2023-04-03T15:38:12.309Z,102571.31
2023-04-03T15:41:15.477Z,102566.13
2023-04-03T15:44:18.576Z,102567.84
2023-04-03T15:47:21.825Z,102564.38
2023-04-03T16:07:29.308Z,102572.47
2023-04-03T16:10:32.465Z,102566.44
2023-04-03T16:13:36.144Z,102567.16
2023-04-03T16:16:39.701Z,102557.59
2023-04-03T16:19:43.060Z,102567.72
2023-04-03T16:22:47.870Z,102561.44
2023-04-03T16:25:51.279Z,102563.25
2023-04-03T16:28:54.914Z,102564.25
2023-04-03T16:31:59.037Z,102560.09
2023-04-03T16:38:07.301Z,102566.81
2023-04-03T16:41:10.811Z,102578.25
2023-04-03T16:44:14.636Z,102574.06
2023-04-03T16:47:20.044Z,102567.31
2023-04-03T16:50:23.168Z,102569.91
2023-04-03T16:53:28.669Z,102576.84
2023-04-03T16:56:31.875Z,102571.72
2023-04-03T16:59:35.272Z,102572.59
2023-04-03T17:02:38.573Z,102570.06
2023-04-03T17:05:41.833Z,102568.47
2023-04-03T17:08:48.708Z,102560.78
2023-04-03T17:12:03.651Z,102570.22
2023-04-03T17:15:08.330Z,102573.59
2023-04-03T17:18:11.387Z,102562.47
2023-04-03T17:21:29.386Z,102565.88
2023-04-03T17:24:41.488Z,102569.25
2023-04-03T17:27:44.616Z,102567.69
2023-04-03T17:30:47.582Z,102567.63
2023-04-03T17:33:50.582Z,102572.00
2023-04-03T17:36:53.877Z,102572.91
2023-04-03T17:39:58.158Z,102582.38
2023-04-03T17:43:01.310Z,102575.56
2023-04-03T17:46:06.558Z,102579.91
2023-04-03T17:49:10.700Z,102582.44
2023-04-03T17:52:13.702Z,102585.91
2023-04-03T17:55:18.708Z,102580.88
2023-04-03T17:58:21.984Z,102582.69
2023-04-03T18:01:28.324Z,102586.97
2023-04-03T18:04:31.914Z,102584.38
2023-04-03T18:07:34.900Z,102589.66
2023-04-03T18:10:39.336Z,102589.56
2023-04-03T18:13:43.584Z,102586.16
2023-04-03T18:16:46.823Z,102594.88
2023-04-03T18:19:51.583Z,102588.91
2023-04-03T18:22:54.663Z,102601.81
2023-04-03T18:26:01.923Z,102593.34
2023-04-03T18:29:07.394Z,102606.25
2023-04-03T18:32:15.193Z,102605.41
2023-04-03T18:35:18.520Z,102608.84
2023-04-03T18:38:21.675Z,102611.50
2023-04-03T18:41:30.207Z,102605.50
2023-04-03T18:44:34.868Z,102614.16
2023-04-03T18:47:38.611Z,102609.00
2023-04-03T18:50:42.008Z,102603.91
2023-04-03T18:53:48.057Z,102603.97
2023-04-03T18:56:52.370Z,102598.84
2023-04-03T18:59:55.431Z,102613.44
2023-04-03T19:02:58.855Z,102606.59
2023-04-03T19:06:03.472Z,102604.06
2023-04-03T19:09:07.840Z,102606.63
2023-04-03T19:12:12.215Z,102609.22
2023-04-03T19:15:16.391Z,102609.22
2023-04-03T19:18:19.477Z,102604.94
2023-04-03T19:21:22.526Z,102601.53
2023-04-03T19:24:25.838Z,102600.66
2023-04-03T19:27:30.631Z,102596.38
2023-04-03T19:30:33.619Z,102595.53
2023-04-03T19:33:36.923Z,102591.28
2023-04-03T19:36:41.818Z,102598.97
2023-04-03T19:39:44.966Z,102588.72
2023-04-03T19:42:49.300Z,102591.22
2023-04-03T19:45:53.434Z,102597.22
2023-04-03T19:48:56.917Z,102586.06
2023-04-03T19:51:59.986Z,102592.19
2023-04-03T19:55:03.072Z,102592.19
2023-04-03T19:58:07.808Z,102599.00
2023-04-03T20:01:11.392Z,102589.63
2023-04-03T20:04:14.491Z,102609.38
2023-04-03T20:07:17.887Z,102605.13
2023-04-03T20:10:21.139Z,102606.88
2023-04-03T20:13:40.646Z,102603.44
2023-04-03T20:16:43.967Z,102603.47
2023-04-03T20:19:46.978Z,102605.25
2023-04-03T20:22:53.853Z,102603.59
2023-04-03T20:26:09.311Z,102606.16
2023-04-03T20:29:16.461Z,102601.91
2023-04-03T20:32:21.523Z,102593.34
2023-04-03T20:35:24.976Z,102606.22
2023-04-03T20:38:28.033Z,102607.06
2023-04-03T20:41:31.878Z,102596.81
2023-04-03T20:44:36.891Z,102597.69
2023-04-03T20:47:40.170Z,102598.56
2023-04-03T20:50:43.467Z,102596.88
2023-04-03T20:53:47.506Z,102599.44
2023-04-03T20:56:51.362Z,102599.44
2023-04-03T20:59:55.645Z,102596.06
2023-04-03T21:02:59.619Z,102599.47
2023-04-03T21:06:03.871Z,102594.34
2023-04-03T21:10:03.528Z,102592.59
2023-04-03T21:14:03.903Z,102590.94
2023-04-03T21:17:06.941Z,102589.19
2023-04-03T21:20:11.813Z,102585.81
2023-04-03T21:23:15.714Z,102579.81
2023-04-03T21:26:19.422Z,102585.00
2023-04-03T21:29:22.492Z,102590.16
2023-04-03T21:32:27.931Z,102594.47
2023-04-03T21:35:32.269Z,102592.75
2023-04-03T21:38:36.087Z,102595.34
2023-04-03T21:41:39.838Z,102597.97
2023-04-03T21:44:42.992Z,102599.69
2023-04-03T21:47:46.104Z,102600.53
2023-04-03T21:50:52.340Z,102598.88
2023-04-03T21:53:56.361Z,102598.03
2023-04-03T21:56:59.293Z,102594.59
2023-04-03T22:00:02.330Z,102596.34
2023-04-03T22:03:10.519Z,102589.50
2023-04-03T22:06:17.425Z,102594.66
2023-04-03T22:09:20.418Z,102587.81
2023-04-03T22:12:24.268Z,102596.41
2023-04-03T22:15:27.986Z,102589.53
2023-04-03T22:18:31.599Z,102589.53
2023-04-03T22:21:36.516Z,102594.69
2023-04-03T22:24:40.080Z,102596.41
2023-04-03T22:27:43.797Z,102589.56
2023-04-03T22:30:46.953Z,102594.66
2023-04-03T22:33:50.200Z,102591.28
2023-04-03T22:36:54.523Z,102591.28
2023-04-03T22:39:57.782Z,102587.00
2023-04-03T22:43:01.145Z,102588.72
2023-04-03T22:46:06.597Z,102586.13
2023-04-03T22:49:12.499Z,102589.56
2023-04-03T22:52:18.028Z,102590.41
2023-04-03T22:55:24.980Z,102590.38
2023-04-03T22:58:29.116Z,102592.13
2023-04-03T23:01:32.659Z,102598.09
2023-04-03T23:04:36.389Z,102585.28
2023-04-03T23:07:40.770Z,102591.22
2023-04-03T23:10:43.750Z,102594.66
2023-04-03T23:13:46.758Z,102587.84
2023-04-03T23:16:49.816Z,102594.66
2023-04-03T23:19:52.897Z,102590.38
2023-04-03T23:22:57.512Z,102594.63
2023-04-03T23:26:02.545Z,102601.47
2023-04-03T23:29:06.103Z,102594.63
2023-04-03T23:32:09.233Z,102592.06
2023-04-03T23:35:12.360Z,102589.50
2023-04-03T23:38:17.591Z,102586.06
2023-04-03T23:41:22.088Z,102592.03
2023-04-03T23:44:25.531Z,102589.50
2023-04-03T23:47:28.699Z,102589.50
2023-04-03T23:50:33.328Z,102582.63
2023-04-03T23:53:37.776Z,102595.44
2023-04-03T23:56:40.784Z,102586.06
2023-04-03T23:59:43.851Z,102585.19
